createdAt,value
2022-10-28T00:01:04.517Z,81.05
2022-10-28T00:03:34.202Z,81.32
2022-10-28T00:06:06.005Z,81.11
2022-10-28T00:08:34.198Z,81.16
2022-10-28T00:11:07.112Z,80.86
2022-10-28T00:13:35.287Z,80.96
2022-10-28T00:16:08.805Z,80.76
2022-10-28T00:18:38.602Z,80.45
2022-10-28T00:21:08.268Z,80.14
2022-10-28T00:23:36.513Z,79.88
2022-10-28T00:26:09.333Z,79.64
2022-10-28T00:28:41.214Z,79.86
2022-10-28T00:31:11.022Z,79.81
2022-10-28T00:33:40.576Z,79.45
2022-10-28T00:36:12.846Z,79.34
2022-10-28T00:38:41.154Z,79.42
2022-10-28T00:41:10.157Z,79.23
2022-10-28T00:43:39.780Z,79.42
2022-10-28T00:46:17.821Z,79.14
2022-10-28T00:48:50.117Z,79.17
2022-10-28T00:51:20.430Z,79.38
2022-10-28T00:53:49.364Z,79.76
2022-10-28T00:56:18.393Z,79.53
2022-10-28T00:58:49.568Z,79.08
2022-10-28T01:01:17.778Z,78.93
2022-10-28T01:03:48.176Z,78.67
2022-10-28T01:06:16.733Z,78.71
2022-10-28T01:08:44.652Z,78.87
2022-10-28T01:11:34.100Z,79.18
2022-10-28T01:14:18.012Z,78.75
2022-10-28T01:16:58.652Z,79.37
2022-10-28T01:19:47.771Z,79.66
2022-10-28T01:22:23.369Z,79.89
2022-10-28T01:25:23.388Z,80.00
2022-10-28T01:28:29.673Z,80.31
2022-10-28T01:31:16.487Z,79.79
2022-10-28T01:33:51.931Z,79.78
2022-10-28T01:36:27.720Z,79.68
2022-10-28T01:39:02.727Z,79.24
2022-10-28T01:41:35.053Z,79.24
2022-10-28T01:44:09.122Z,79.23
2022-10-28T01:46:43.276Z,78.80
2022-10-28T01:49:15.355Z,78.15
2022-10-28T01:51:48.637Z,78.64
2022-10-28T01:54:20.244Z,79.13
2022-10-28T01:56:49.977Z,79.12
2022-10-28T01:59:20.826Z,79.24
2022-10-28T02:01:50.476Z,79.39
2022-10-28T02:04:18.877Z,79.54
2022-10-28T02:06:51.495Z,80.23
2022-10-28T02:09:35.207Z,80.45
2022-10-28T02:12:25.582Z,80.52
2022-10-28T02:15:25.747Z,81.11
2022-10-28T02:18:10.570Z,80.94
2022-10-28T02:20:47.894Z,81.38
2022-10-28T02:23:23.473Z,81.28
2022-10-28T02:25:57.969Z,81.14
2022-10-28T02:28:37.876Z,80.80
2022-10-28T02:31:11.848Z,80.50
2022-10-28T02:33:44.363Z,80.76
2022-10-28T02:36:15.471Z,80.24
2022-10-28T02:38:47.217Z,80.93
2022-10-28T02:41:21.743Z,80.86
2022-10-28T02:43:54.789Z,80.60
2022-10-28T02:46:24.734Z,80.95
2022-10-28T02:48:56.815Z,80.95
2022-10-28T02:51:31.578Z,81.07
2022-10-28T02:54:05.688Z,80.99
2022-10-28T02:56:48.675Z,81.32
2022-10-28T02:59:16.681Z,81.28
2022-10-28T03:01:44.959Z,81.07
2022-10-28T03:04:14.312Z,81.44
2022-10-28T03:06:42.220Z,81.79
2022-10-28T03:09:10.050Z,81.98
2022-10-28T03:11:38.018Z,81.83
2022-10-28T03:14:05.871Z,82.44
2022-10-28T03:16:33.871Z,82.58
2022-10-28T03:19:02.388Z,82.82
2022-10-28T03:21:31.704Z,82.23
2022-10-28T03:23:59.504Z,82.02
2022-10-28T03:26:27.338Z,81.88
2022-10-28T03:28:55.169Z,81.25
2022-10-28T03:31:23.463Z,81.53
2022-10-28T03:33:51.249Z,81.21
2022-10-28T03:36:19.061Z,81.43
2022-10-28T03:38:48.280Z,81.57
2022-10-28T03:41:16.347Z,81.61
2022-10-28T03:43:44.149Z,81.65
2022-10-28T03:46:11.998Z,81.60
2022-10-28T03:48:39.814Z,82.20
2022-10-28T03:51:07.969Z,82.78
2022-10-28T03:53:35.852Z,82.78
2022-10-28T03:56:05.878Z,83.08
2022-10-28T03:58:37.299Z,82.59
2022-10-28T04:01:08.453Z,82.57
2022-10-28T04:03:36.466Z,82.51
2022-10-28T04:06:04.664Z,82.84
2022-10-28T04:08:34.143Z,82.74
2022-10-28T04:11:01.942Z,82.61
2022-10-28T04:13:31.145Z,82.99
2022-10-28T04:15:58.995Z,82.80
2022-10-28T04:18:26.985Z,83.03
2022-10-28T04:20:54.936Z,82.60
2022-10-28T04:23:22.798Z,82.47
2022-10-28T04:25:53.408Z,82.92
2022-10-28T04:28:22.187Z,82.98
2022-10-28T04:30:51.437Z,83.10
2022-10-28T04:33:19.634Z,83.77
2022-10-28T04:35:47.720Z,83.92
2022-10-28T04:38:16.385Z,84.13
2022-10-28T04:40:44.294Z,83.93
2022-10-28T04:43:12.289Z,83.46
2022-10-28T04:45:40.170Z,82.96
2022-10-28T04:48:10.621Z,82.85
2022-10-28T04:50:38.884Z,82.27
2022-10-28T04:53:06.697Z,82.50
2022-10-28T04:55:34.536Z,82.07
2022-10-28T04:58:02.990Z,82.32
2022-10-28T05:00:31.303Z,82.04
2022-10-28T05:03:02.735Z,82.39
2022-10-28T05:05:32.179Z,82.46
2022-10-28T05:08:00.483Z,82.67
2022-10-28T05:10:28.542Z,82.91
2022-10-28T05:12:56.427Z,82.99
2022-10-28T05:15:25.871Z,82.91
2022-10-28T05:17:54.504Z,83.46
2022-10-28T05:20:22.877Z,82.85
2022-10-28T05:22:55.147Z,82.30
2022-10-28T05:25:24.304Z,81.89
2022-10-28T05:27:52.359Z,81.63
2022-10-28T05:30:20.849Z,81.07
2022-10-28T05:32:51.547Z,80.60
2022-10-28T05:35:23.589Z,80.02
2022-10-28T05:37:52.835Z,76.82
2022-10-28T05:40:20.634Z,75.47
2022-10-28T05:42:48.556Z,75.87
2022-10-28T05:45:16.908Z,76.32
2022-10-28T05:47:45.407Z,75.89
2022-10-28T05:50:13.553Z,76.61
2022-10-28T05:52:41.911Z,76.79
2022-10-28T05:55:11.454Z,77.38
2022-10-28T05:57:39.239Z,77.39
2022-10-28T06:00:08.649Z,77.30
2022-10-28T06:02:36.804Z,77.09
2022-10-28T06:05:05.228Z,76.93
2022-10-28T06:07:34.870Z,76.80
2022-10-28T06:10:02.996Z,76.38
2022-10-28T06:12:31.283Z,76.07
2022-10-28T06:14:59.385Z,76.42
2022-10-28T06:17:27.277Z,76.52
2022-10-28T06:19:55.300Z,76.45
2022-10-28T06:22:23.209Z,76.53
2022-10-28T06:24:51.211Z,76.70
2022-10-28T06:27:19.400Z,77.08
2022-10-28T06:29:48.645Z,77.06
2022-10-28T06:32:16.427Z,77.13
2022-10-28T06:34:44.428Z,77.19
2022-10-28T06:37:12.817Z,76.37
2022-10-28T06:39:42.035Z,76.45
2022-10-28T06:42:09.943Z,75.93
2022-10-28T06:44:37.996Z,75.43
2022-10-28T06:47:08.707Z,74.59
2022-10-28T06:49:36.629Z,74.71
2022-10-28T06:52:04.819Z,73.99
2022-10-28T06:54:32.639Z,72.95
2022-10-28T06:57:00.419Z,71.99
2022-10-28T06:59:28.305Z,72.19
2022-10-28T07:01:56.227Z,71.48
2022-10-28T07:04:25.790Z,71.23
2022-10-28T07:06:56.606Z,71.10
2022-10-28T07:09:25.674Z,70.54
2022-10-28T07:11:55.112Z,69.56
2022-10-28T07:14:23.925Z,69.10
2022-10-28T07:16:51.748Z,69.35
2022-10-28T07:19:22.585Z,68.80
2022-10-28T07:21:52.479Z,68.19
2022-10-28T07:24:20.549Z,68.35
2022-10-28T07:26:52.015Z,67.77
2022-10-28T07:29:22.631Z,67.30
2022-10-28T07:31:50.731Z,67.66
2022-10-28T07:34:25.893Z,67.63
2022-10-28T07:36:57.181Z,67.53
2022-10-28T07:39:26.005Z,67.73
2022-10-28T07:41:54.408Z,67.46
2022-10-28T07:44:22.662Z,67.18
2022-10-28T07:46:54.223Z,66.73
2022-10-28T07:49:25.818Z,66.30
2022-10-28T07:51:53.685Z,65.83
2022-10-28T07:54:23.054Z,65.64
2022-10-28T07:56:50.971Z,65.64
2022-10-28T07:59:25.803Z,66.22
2022-10-28T08:01:55.251Z,66.53
2022-10-28T08:04:23.446Z,66.43
2022-10-28T08:06:51.368Z,66.70
2022-10-28T08:09:19.504Z,67.01
2022-10-28T08:11:48.799Z,67.89
2022-10-28T08:14:17.219Z,67.24
2022-10-28T08:16:46.807Z,67.09
2022-10-28T08:19:14.743Z,67.09
2022-10-28T08:21:42.992Z,67.62
2022-10-28T08:24:11.055Z,68.17
2022-10-28T08:26:39.014Z,68.68
2022-10-28T08:29:08.873Z,69.24
2022-10-28T08:31:37.030Z,69.59
2022-10-28T08:34:05.428Z,70.33
2022-10-28T08:36:33.708Z,71.22
2022-10-28T08:39:03.021Z,71.49
2022-10-28T08:41:37.199Z,71.33
2022-10-28T08:44:48.992Z,72.07
2022-10-28T08:47:32.544Z,72.90
2022-10-28T08:50:03.872Z,73.04
2022-10-28T08:52:38.057Z,73.13
2022-10-28T08:55:09.001Z,72.94
2022-10-28T08:57:44.408Z,72.85
2022-10-28T09:00:22.086Z,72.89
2022-10-28T09:03:00.630Z,72.81
2022-10-28T09:05:29.206Z,73.18
2022-10-28T09:07:58.621Z,73.06
2022-10-28T09:10:47.443Z,72.93
2022-10-28T09:13:24.824Z,72.33
2022-10-28T09:16:01.908Z,72.39
2022-10-28T09:18:49.169Z,72.31
2022-10-28T09:21:31.012Z,72.29
2022-10-28T09:24:05.147Z,72.51
2022-10-28T09:26:55.681Z,72.33
2022-10-28T09:29:44.706Z,71.17
2022-10-28T09:32:30.946Z,71.53
2022-10-28T09:35:06.530Z,71.82
2022-10-28T09:37:38.179Z,72.14
2022-10-28T09:40:18.215Z,71.83
2022-10-28T09:43:02.307Z,72.69
2022-10-28T09:45:33.163Z,73.53
2022-10-28T09:48:10.852Z,73.59
2022-10-28T09:50:41.344Z,74.39
2022-10-28T09:53:33.693Z,72.01
2022-10-28T09:56:04.689Z,71.99
2022-10-28T09:58:33.669Z,69.05
2022-10-28T10:01:01.904Z,68.32
2022-10-28T10:03:31.506Z,68.88
2022-10-28T10:06:08.726Z,68.13
2022-10-28T10:08:37.582Z,65.18
2022-10-28T10:11:13.044Z,66.09
2022-10-28T10:13:44.556Z,63.92
2022-10-28T10:16:19.125Z,63.34
2022-10-28T10:18:52.246Z,62.39
2022-10-28T10:21:42.438Z,61.51
2022-10-28T10:24:46.469Z,60.58
2022-10-28T10:27:20.858Z,60.54
2022-10-28T10:29:50.726Z,60.57
2022-10-28T10:32:21.437Z,59.75
2022-10-28T10:35:00.514Z,59.16
2022-10-28T10:37:31.414Z,58.74
2022-10-28T10:40:05.031Z,58.38
2022-10-28T10:42:39.146Z,58.25
2022-10-28T10:45:24.306Z,58.60
2022-10-28T10:48:12.211Z,58.61
2022-10-28T10:50:43.113Z,58.38
2022-10-28T10:53:21.314Z,57.94
2022-10-28T10:55:55.852Z,57.89
2022-10-28T10:58:27.929Z,56.34
2022-10-28T11:00:59.356Z,54.73
2022-10-28T11:03:31.456Z,55.40
2022-10-28T11:08:50.330Z,54.74
2022-10-28T11:11:22.301Z,55.64
2022-10-28T11:14:03.357Z,55.44
2022-10-28T11:16:31.348Z,56.53
2022-10-28T11:18:59.164Z,57.03
2022-10-28T11:21:43.342Z,57.36
2022-10-28T11:24:29.062Z,57.75
2022-10-28T11:27:05.420Z,58.11
2022-10-28T11:29:33.698Z,58.25
2022-10-28T11:32:27.451Z,56.95
2022-10-28T11:35:15.093Z,58.44
2022-10-28T11:37:58.893Z,59.38
2022-10-28T11:40:34.073Z,59.72
2022-10-28T11:43:25.124Z,60.10
2022-10-28T11:46:05.729Z,59.34
2022-10-28T11:48:49.328Z,59.65
2022-10-28T11:51:31.424Z,59.62
2022-10-28T11:54:24.407Z,59.90
2022-10-28T11:57:00.654Z,60.27
2022-10-28T11:59:57.577Z,61.17
2022-10-28T12:02:47.074Z,61.64
2022-10-28T12:05:24.859Z,60.75
2022-10-28T12:08:08.944Z,59.87
2022-10-28T12:10:49.158Z,59.25
2022-10-28T12:13:28.495Z,58.69
2022-10-28T12:16:03.713Z,55.32
2022-10-28T12:18:44.932Z,53.50
2022-10-28T12:21:20.489Z,54.53
2022-10-28T12:23:50.492Z,53.39
2022-10-28T12:26:26.237Z,52.85
2022-10-28T12:28:59.024Z,53.98
2022-10-28T12:31:30.063Z,52.76
2022-10-28T12:34:08.069Z,53.56
2022-10-28T12:36:44.640Z,53.78
2022-10-28T12:39:18.343Z,54.49
2022-10-28T12:41:59.877Z,55.14
2022-10-28T12:44:29.537Z,54.59
2022-10-28T12:47:13.849Z,53.36
2022-10-28T12:49:50.640Z,53.36
2022-10-28T12:52:31.121Z,54.34
2022-10-28T12:55:03.682Z,55.17
2022-10-28T12:57:38.072Z,54.02
2022-10-28T13:00:16.997Z,54.31
2022-10-28T13:02:50.538Z,55.63
2022-10-28T13:05:23.097Z,55.93
2022-10-28T13:08:08.619Z,55.42
2022-10-28T13:10:43.958Z,55.60
2022-10-28T13:13:32.553Z,55.32
2022-10-28T13:16:16.260Z,55.56
2022-10-28T13:19:04.585Z,55.67
2022-10-28T13:21:54.095Z,56.24
2022-10-28T13:24:31.508Z,57.29
2022-10-28T13:27:03.096Z,57.30
2022-10-28T13:29:34.746Z,56.44
2022-10-28T13:32:02.949Z,54.73
2022-10-28T13:34:36.366Z,54.03
2022-10-28T13:37:19.355Z,53.59
2022-10-28T13:39:48.067Z,54.43
2022-10-28T13:42:47.443Z,54.30
2022-10-28T13:45:49.096Z,53.46
2022-10-28T13:48:45.662Z,52.84
2022-10-28T13:51:33.294Z,52.18
2022-10-28T13:54:01.825Z,51.90
2022-10-28T13:56:51.065Z,52.29
2022-10-28T13:59:25.894Z,52.04
2022-10-28T14:02:02.293Z,51.84
2022-10-28T14:04:39.176Z,52.69
2022-10-28T14:07:21.992Z,53.40
2022-10-28T14:09:57.236Z,54.13
2022-10-28T14:12:35.747Z,54.68
2022-10-28T14:15:09.553Z,55.95
2022-10-28T14:17:43.421Z,56.13
2022-10-28T14:20:29.820Z,56.76
2022-10-28T14:22:57.790Z,56.81
2022-10-28T14:25:59.808Z,58.05
2022-10-28T14:28:53.220Z,58.84
2022-10-28T14:31:36.693Z,58.54
2022-10-28T14:34:42.462Z,58.05
2022-10-28T14:37:34.579Z,57.90
2022-10-28T14:40:30.258Z,58.04
2022-10-28T14:43:10.026Z,58.86
2022-10-28T14:45:45.912Z,57.93
2022-10-28T14:48:48.721Z,58.20
2022-10-28T14:51:20.560Z,57.85
2022-10-28T14:53:49.534Z,57.67
2022-10-28T14:58:59.963Z,58.20
2022-10-28T15:01:35.156Z,58.51
2022-10-28T15:04:05.354Z,59.37
2022-10-28T15:06:40.646Z,59.43
2022-10-28T15:09:25.195Z,59.73
2022-10-28T15:11:57.258Z,59.67
2022-10-28T15:14:36.761Z,59.80
2022-10-28T15:17:13.022Z,59.92
2022-10-28T15:19:41.247Z,59.92
2022-10-28T15:22:26.103Z,60.91
2022-10-28T15:25:02.194Z,61.11
2022-10-28T15:27:32.201Z,60.09
2022-10-28T15:30:00.639Z,59.67
2022-10-28T15:32:32.307Z,59.69
2022-10-28T15:35:00.672Z,59.53
2022-10-28T15:37:32.030Z,60.03
2022-10-28T15:40:20.208Z,59.76
2022-10-28T15:42:54.165Z,60.73
2022-10-28T15:45:25.945Z,61.26
2022-10-28T15:47:55.247Z,62.01
2022-10-28T15:50:34.109Z,61.11
2022-10-28T15:53:39.466Z,60.30
2022-10-28T15:56:21.994Z,60.56
2022-10-28T15:59:05.197Z,60.02
2022-10-28T16:01:39.574Z,60.02
2022-10-28T16:04:25.060Z,59.45
2022-10-28T16:06:54.885Z,58.96
2022-10-28T16:09:29.243Z,58.42
2022-10-28T16:12:01.731Z,58.61
2022-10-28T16:14:37.113Z,58.11
2022-10-28T16:17:07.507Z,58.68
2022-10-28T16:19:38.646Z,58.26
2022-10-28T16:22:12.170Z,58.04
2022-10-28T16:24:41.511Z,58.15
2022-10-28T16:27:18.760Z,58.57
2022-10-28T16:29:46.973Z,58.93
2022-10-28T16:32:16.496Z,58.36
2022-10-28T16:34:44.709Z,58.64
2022-10-28T16:37:28.838Z,58.59
2022-10-28T16:39:59.054Z,58.53
2022-10-28T16:42:29.082Z,58.49
2022-10-28T16:44:56.923Z,59.22
2022-10-28T16:47:26.771Z,59.45
2022-10-28T16:49:57.546Z,59.71
2022-10-28T16:52:28.472Z,60.02
2022-10-28T16:54:59.016Z,59.96
2022-10-28T16:57:28.233Z,59.36
2022-10-28T16:59:56.143Z,59.45
2022-10-28T17:02:28.958Z,58.98
2022-10-28T17:04:57.425Z,59.35
2022-10-28T17:07:26.101Z,59.65
2022-10-28T17:09:56.983Z,59.75
2022-10-28T17:12:28.345Z,60.15
2022-10-28T17:14:56.250Z,60.73
2022-10-28T17:17:26.150Z,61.20
2022-10-28T17:20:00.389Z,61.29
2022-10-28T17:22:31.516Z,62.05
2022-10-28T17:25:01.351Z,62.43
2022-10-28T17:27:32.083Z,62.97
2022-10-28T17:30:00.059Z,63.41
2022-10-28T17:32:30.268Z,63.51
2022-10-28T17:35:00.008Z,63.52
2022-10-28T17:37:28.008Z,63.44
2022-10-28T17:39:57.273Z,63.90
2022-10-28T17:42:25.359Z,63.84
2022-10-28T17:44:54.624Z,64.08
2022-10-28T17:47:22.478Z,64.24
2022-10-28T17:49:50.503Z,64.29
2022-10-28T17:52:18.714Z,64.58
2022-10-28T17:54:46.557Z,64.67
2022-10-28T17:57:14.579Z,64.99
2022-10-28T17:59:42.568Z,65.29
2022-10-28T18:02:14.658Z,65.96
2022-10-28T18:04:43.289Z,65.75
2022-10-28T18:07:11.153Z,65.98
2022-10-28T18:09:40.612Z,66.25
2022-10-28T18:12:09.787Z,66.50
2022-10-28T18:14:38.740Z,66.90
2022-10-28T18:17:06.600Z,66.80
2022-10-28T18:19:35.986Z,65.78
2022-10-28T18:22:04.106Z,65.80
2022-10-28T18:24:31.981Z,66.97
2022-10-28T18:27:00.073Z,68.44
2022-10-28T18:29:28.077Z,68.00
2022-10-28T18:31:56.829Z,67.47
2022-10-28T18:34:25.211Z,68.30
2022-10-28T18:36:54.615Z,69.17
2022-10-28T18:39:22.541Z,69.00
2022-10-28T18:41:51.585Z,68.90
2022-10-28T18:44:21.708Z,69.05
2022-10-28T18:46:51.320Z,69.59
2022-10-28T18:49:19.227Z,69.17
2022-10-28T18:51:47.189Z,69.58
2022-10-28T18:54:16.598Z,70.65
2022-10-28T18:56:47.689Z,71.28
2022-10-28T18:59:16.971Z,72.07
2022-10-28T19:01:47.263Z,72.58
2022-10-28T19:04:15.763Z,73.50
2022-10-28T19:06:43.817Z,73.81
2022-10-28T19:09:11.827Z,74.24
2022-10-28T19:11:41.102Z,74.74
2022-10-28T19:14:10.535Z,74.21
2022-10-28T19:16:38.408Z,73.87
2022-10-28T19:19:07.153Z,74.26
2022-10-28T19:21:35.519Z,72.99
2022-10-28T19:24:05.359Z,72.31
2022-10-28T19:26:34.360Z,72.27
2022-10-28T19:29:05.558Z,72.04
2022-10-28T19:31:36.944Z,72.08
2022-10-28T19:34:04.883Z,71.40
2022-10-28T19:36:32.839Z,71.09
2022-10-28T19:39:00.979Z,70.33
2022-10-28T19:41:30.787Z,69.29
2022-10-28T19:44:00.756Z,69.04
2022-10-28T19:46:31.474Z,68.88
2022-10-28T19:49:00.848Z,68.77
2022-10-28T19:51:31.290Z,68.32
2022-10-28T19:54:01.671Z,68.15
2022-10-28T19:56:31.306Z,67.46
2022-10-28T19:59:01.438Z,67.38
2022-10-28T20:01:33.423Z,66.86
2022-10-28T20:04:01.906Z,66.13
2022-10-28T20:06:33.743Z,66.61
2022-10-28T20:09:02.002Z,66.87
2022-10-28T20:11:32.639Z,67.39
2022-10-28T20:14:01.968Z,68.27
2022-10-28T20:16:32.283Z,68.72
2022-10-28T20:19:00.373Z,69.34
2022-10-28T20:21:30.576Z,70.01
2022-10-28T20:23:58.991Z,70.75
2022-10-28T20:26:28.596Z,70.94
2022-10-28T20:28:56.871Z,71.83
2022-10-28T20:31:26.558Z,72.23
2022-10-28T20:33:57.787Z,73.04
2022-10-28T20:36:28.230Z,73.36
2022-10-28T20:38:56.802Z,73.83
2022-10-28T20:41:25.553Z,74.18
2022-10-28T20:43:54.815Z,74.23
2022-10-28T20:46:24.098Z,74.20
2022-10-28T20:48:54.136Z,73.70
2022-10-28T20:51:25.904Z,74.12
2022-10-28T20:53:53.880Z,74.93
2022-10-28T20:56:23.899Z,75.35
2022-10-28T20:58:52.272Z,75.41
2022-10-28T21:01:22.020Z,75.79
2022-10-28T21:03:50.636Z,75.60
2022-10-28T21:06:19.115Z,75.70
2022-10-28T21:08:49.671Z,75.70
2022-10-28T21:11:18.686Z,76.48
2022-10-28T21:13:51.864Z,76.85
2022-10-28T21:16:22.766Z,76.99
2022-10-28T21:18:51.403Z,77.33
2022-10-28T21:21:20.304Z,77.11
2022-10-28T21:23:49.494Z,76.81
2022-10-28T21:26:17.944Z,76.76
2022-10-28T21:28:49.844Z,77.23
2022-10-28T21:31:18.188Z,76.75
2022-10-28T21:36:22.455Z,77.18
2022-10-28T21:38:54.581Z,76.88
2022-10-28T21:41:23.668Z,77.00
2022-10-28T21:43:53.605Z,77.20
2022-10-28T21:46:28.052Z,77.01
2022-10-28T21:48:58.533Z,77.05
2022-10-28T21:51:31.765Z,77.22
2022-10-28T21:54:01.036Z,77.63
2022-10-28T21:56:28.934Z,77.40
2022-10-28T21:58:59.250Z,77.43
2022-10-28T22:01:27.439Z,77.90
2022-10-28T22:03:58.735Z,78.13
2022-10-28T22:06:26.661Z,78.18
2022-10-28T22:08:55.140Z,77.42
2022-10-28T22:11:25.462Z,76.85
2022-10-28T22:13:58.471Z,76.51
2022-10-28T22:16:27.694Z,75.80
2022-10-28T22:18:55.911Z,76.74
2022-10-28T22:21:25.872Z,77.99
2022-10-28T22:23:54.438Z,78.62
2022-10-28T22:26:25.949Z,79.10
2022-10-28T22:28:53.892Z,79.21
2022-10-28T22:31:25.376Z,79.22
2022-10-28T22:33:53.457Z,79.39
2022-10-28T22:36:23.099Z,79.23
2022-10-28T22:38:51.574Z,79.29
2022-10-28T22:41:21.569Z,79.84
2022-10-28T22:43:52.551Z,78.36
2022-10-28T22:46:21.249Z,78.58
2022-10-28T22:48:49.377Z,77.89
2022-10-28T22:51:18.747Z,77.44
2022-10-28T22:53:50.197Z,78.19
2022-10-28T22:56:21.031Z,78.13
2022-10-28T22:58:54.184Z,78.36
2022-10-28T23:01:22.723Z,77.90
2022-10-28T23:03:52.964Z,78.02
2022-10-28T23:06:22.206Z,77.55
2022-10-28T23:08:50.239Z,77.77
2022-10-28T23:11:20.349Z,76.67
2022-10-28T23:13:53.778Z,77.09
2022-10-28T23:16:22.782Z,77.65
2022-10-28T23:18:53.008Z,78.22
2022-10-28T23:21:23.087Z,78.46
2022-10-28T23:23:54.581Z,78.80
2022-10-28T23:26:23.279Z,79.18
2022-10-28T23:28:54.595Z,79.81
2022-10-28T23:31:24.021Z,80.12
2022-10-28T23:33:52.665Z,80.29
2022-10-28T23:36:20.539Z,80.55
2022-10-28T23:38:48.920Z,80.59
2022-10-28T23:41:18.954Z,80.32
2022-10-28T23:43:48.724Z,80.45
2022-10-28T23:46:19.669Z,79.87
2022-10-28T23:48:47.648Z,79.69
2022-10-28T23:51:15.628Z,80.05
2022-10-28T23:53:43.665Z,79.66
2022-10-28T23:56:12.068Z,79.68
2022-10-28T23:58:39.881Z,80.05
